Time;durP1;ratioP1;P1;durP2;ratioP2;P2;SDS_P1;SDS_P2;PMS_P1;PMS_P2;Temp;Humidity;BMP_temperature;BMP_pressure;BME280_temperature;BME280_humidity;BME280_pressure;Samples;Min_cycle;Max_cycle;Signal;HPM_P1;HPM_P2
2021/06/17 00:00:13;;;;;;;58.37;2.97;;;19.50;1.00;;;;;;5014112;28;20568;-68
2021/06/17 00:02:40;;;;;;;58.67;3.00;;;19.50;1.00;;;;;;5014063;28;20485;-68
2021/06/17 00:05:09;;;;;;;58.50;3.00;;;19.40;1.00;;;;;;5014264;28;20588;-69
2021/06/17 00:07:36;;;;;;;58.00;2.63;;;19.40;1.00;;;;;;5013839;28;20821;-69
2021/06/17 00:10:05;;;;;;;58.67;2.97;;;19.40;1.00;;;;;;5014080;28;20560;-69
2021/06/17 00:12:33;;;;;;;58.67;2.60;;;19.40;1.00;;;;;;5013911;28;20950;-69
2021/06/17 00:15:00;;;;;;;58.67;3.73;;;19.30;1.00;;;;;;5014212;28;20521;-69
2021/06/17 00:17:27;;;;;;;58.77;3.23;;;19.30;1.00;;;;;;5014029;28;20742;-69
2021/06/17 00:19:54;;;;;;;58.77;2.80;;;19.20;1.00;;;;;;5014206;28;20819;-69
2021/06/17 00:22:21;;;;;;;58.17;2.80;;;19.20;1.00;;;;;;5014028;28;20454;-69
2021/06/17 00:24:47;;;;;;;58.27;2.80;;;19.10;1.00;;;;;;5013897;28;20852;-69
2021/06/17 00:27:14;;;;;;;58.60;2.63;;;19.10;1.00;;;;;;5013654;28;20492;-68
2021/06/17 00:29:43;;;;;;;58.67;2.90;;;19.00;1.00;;;;;;5014010;28;20549;-68
2021/06/17 00:32:10;;;;;;;59.07;3.00;;;19.00;1.00;;;;;;5013725;28;20537;-70
2021/06/17 00:34:37;;;;;;;58.80;2.97;;;18.90;1.00;;;;;;5013445;28;20450;-69
2021/06/17 00:37:04;;;;;;;58.73;2.90;;;18.90;1.00;;;;;;5013596;28;20548;-70
2021/06/17 00:39:31;;;;;;;58.67;3.00;;;18.90;1.00;;;;;;5013394;28;20560;-68
2021/06/17 00:41:58;;;;;;;58.43;2.80;;;18.80;1.00;;;;;;5013688;28;20488;-69
2021/06/17 00:44:24;;;;;;;58.77;2.63;;;18.80;1.00;;;;;;5013377;28;20568;-69
2021/06/17 00:46:53;;;;;;;58.47;2.80;;;18.80;1.00;;;;;;5013192;28;20448;-69
2021/06/17 00:49:19;;;;;;;58.13;2.57;;;18.70;1.00;;;;;;5013261;28;20564;-68
2021/06/17 00:51:46;;;;;;;58.27;2.60;;;18.70;1.00;;;;;;5013671;28;20451;-70
2021/06/17 00:54:31;;;;;;;58.40;2.87;;;18.60;1.00;;;;;;5013404;28;20492;-69
2021/06/17 00:56:58;;;;;;;58.40;2.50;;;18.60;1.00;;;;;;5013014;28;20464;-69
2021/06/17 00:59:25;;;;;;;58.17;2.40;;;18.50;1.00;;;;;;5012932;28;20575;-69
2021/06/17 01:01:53;;;;;;;58.13;2.73;;;18.40;1.00;;;;;;5013218;28;20547;-68
2021/06/17 01:04:20;;;;;;;59.27;3.67;;;18.40;1.00;;;;;;5013353;28;20547;-69
2021/06/17 01:06:47;;;;;;;58.60;2.87;;;18.30;1.00;;;;;;5012729;28;20453;-69
2021/06/17 01:09:20;;;;;;;58.37;2.90;;;18.30;1.00;;;;;;5013084;28;20563;-69
2021/06/17 01:11:58;;;;;;;58.37;2.80;;;18.20;1.00;;;;;;5012869;28;20456;-70
2021/06/17 01:14:30;;;;;;;58.57;2.77;;;18.20;1.00;;;;;;5012974;28;20979;-70
2021/06/17 01:17:06;;;;;;;58.37;2.80;;;18.20;1.00;;;;;;5012719;28;20484;-69
2021/06/17 01:19:44;;;;;;;58.20;2.60;;;18.20;1.00;;;;;;5012734;28;20559;-69
2021/06/17 01:22:19;;;;;;;58.87;2.70;;;18.20;1.00;;;;;;5012943;28;20492;-69
2021/06/17 01:25:03;;;;;;;58.57;3.10;;;18.10;1.00;;;;;;5012728;28;20507;-69
2021/06/17 01:27:58;;;;;;;58.23;2.60;;;18.10;1.00;;;;;;5012574;28;20484;-69
2021/06/17 01:30:27;;;;;;;58.67;2.70;;;18.10;1.00;;;;;;5012861;28;20708;-69
2021/06/17 01:32:59;;;;;;;58.47;2.90;;;18.00;1.00;;;;;;5012631;28;20550;-69
2021/06/17 01:35:27;;;;;;;58.73;2.70;;;18.00;1.00;;;;;;5012997;28;20496;-69
2021/06/17 01:37:58;;;;;;;58.43;2.70;;;18.00;1.00;;;;;;5012368;28;20532;-69
2021/06/17 01:40:26;;;;;;;59.20;3.30;;;17.90;1.00;;;;;;5012807;28;20447;-68
2021/06/17 01:42:54;;;;;;;58.57;2.90;;;17.90;1.00;;;;;;5012294;28;20541;-69
2021/06/17 01:45:25;;;;;;;58.67;2.90;;;17.90;1.00;;;;;;5012301;28;20854;-69
2021/06/17 01:47:53;;;;;;;58.83;3.00;;;17.80;1.00;;;;;;5012172;28;20520;-70
2021/06/17 01:50:22;;;;;;;59.00;3.20;;;17.70;1.00;;;;;;5012628;28;20477;-69
2021/06/17 01:52:51;;;;;;;58.47;3.10;;;17.70;1.00;;;;;;5012218;28;20506;-69
2021/06/17 01:55:18;;;;;;;58.67;2.97;;;17.60;1.00;;;;;;5012435;28;20869;-69
2021/06/17 01:57:46;;;;;;;58.60;2.70;;;17.60;1.00;;;;;;5012056;28;20488;-69
2021/06/17 02:00:15;;;;;;;58.57;2.80;;;17.70;1.00;;;;;;5012421;28;20526;-68
2021/06/17 02:02:45;;;;;;;58.43;2.90;;;17.70;1.00;;;;;;5012428;28;20532;-69
2021/06/17 02:05:13;;;;;;;58.10;2.90;;;17.70;1.00;;;;;;5012199;28;20577;-68
2021/06/17 02:07:43;;;;;;;58.50;2.77;;;17.60;1.00;;;;;;5012551;28;20448;-68
2021/06/17 02:10:11;;;;;;;58.23;2.70;;;17.60;1.00;;;;;;5012027;28;20591;-69
2021/06/17 02:12:40;;;;;;;58.27;2.70;;;17.60;1.00;;;;;;5011966;28;20530;-69
2021/06/17 02:15:08;;;;;;;58.90;2.80;;;17.60;1.00;;;;;;5012006;28;21033;-69
2021/06/17 02:17:37;;;;;;;58.37;2.60;;;17.60;1.00;;;;;;5011918;28;20447;-69
2021/06/17 02:20:08;;;;;;;58.70;3.00;;;17.60;1.00;;;;;;5011726;28;20506;-69
2021/06/17 02:22:36;;;;;;;58.40;2.53;;;17.50;1.00;;;;;;5011980;28;20547;-70
2021/06/17 02:25:05;;;;;;;59.07;3.67;;;17.50;1.00;;;;;;5011560;28;20485;-70
2021/06/17 02:27:34;;;;;;;58.77;2.90;;;17.50;1.00;;;;;;5011916;28;20459;-69
2021/06/17 02:30:06;;;;;;;58.03;2.50;;;17.50;1.00;;;;;;5010753;28;21022;-70
2021/06/17 02:32:39;;;;;;;59.67;3.47;;;17.50;1.00;;;;;;5011940;28;20545;-69
2021/06/17 02:35:09;;;;;;;58.87;3.00;;;17.50;1.00;;;;;;5011813;28;20482;-69
2021/06/17 02:37:38;;;;;;;59.00;2.80;;;17.50;1.00;;;;;;5011505;28;20458;-69
2021/06/17 02:40:07;;;;;;;58.43;2.73;;;17.50;1.00;;;;;;5011882;28;20474;-70
2021/06/17 02:42:35;;;;;;;58.73;2.70;;;17.40;1.00;;;;;;5011970;28;20831;-69
2021/06/17 02:45:03;;;;;;;58.33;2.53;;;17.40;1.00;;;;;;5011409;28;20449;-68
2021/06/17 02:47:30;;;;;;;58.33;2.80;;;17.40;1.00;;;;;;5011299;28;20486;-68
2021/06/17 02:49:56;;;;;;;58.43;3.00;;;17.40;1.00;;;;;;5011557;28;20468;-69
2021/06/17 02:52:25;;;;;;;58.30;2.70;;;17.40;1.00;;;;;;5011560;28;20450;-69
2021/06/17 02:54:52;;;;;;;58.13;2.50;;;17.40;1.00;;;;;;5011628;28;20487;-69
2021/06/17 02:57:22;;;;;;;58.03;2.80;;;17.40;1.00;;;;;;5011348;28;20448;-69
2021/06/17 03:00:04;;;;;;;59.20;3.53;;;17.40;1.00;;;;;;5011439;28;21090;-69
2021/06/17 03:02:37;;;;;;;58.50;2.63;;;17.30;1.00;;;;;;5011326;28;20452;-68
2021/06/17 03:05:12;;;;;;;58.90;3.27;;;17.20;1.00;;;;;;5011674;28;20559;-70
2021/06/17 03:07:46;;;;;;;58.57;2.97;;;17.20;1.00;;;;;;5011447;28;20533;-69
2021/06/17 03:10:14;;;;;;;59.60;3.60;;;17.30;1.00;;;;;;5011597;28;20482;-69
2021/06/17 03:12:45;;;;;;;58.37;2.80;;;17.30;1.00;;;;;;5011305;28;20831;-69
2021/06/17 03:15:13;;;;;;;58.13;2.80;;;17.20;1.00;;;;;;5011711;28;20542;-70
2021/06/17 03:17:44;;;;;;;58.23;2.87;;;17.20;1.00;;;;;;5011382;28;20537;-70
2021/06/17 03:20:12;;;;;;;58.77;3.20;;;17.10;1.00;;;;;;5011636;28;20556;-69
2021/06/17 03:22:43;;;;;;;58.57;2.87;;;17.10;1.00;;;;;;5011249;28;20478;-70
2021/06/17 03:25:15;;;;;;;58.90;2.97;;;17.00;1.00;;;;;;5011356;28;20451;-70
2021/06/17 03:27:43;;;;;;;58.30;2.70;;;17.10;1.00;;;;;;5011179;28;20628;-69
2021/06/17 03:30:12;;;;;;;58.97;3.47;;;17.00;1.00;;;;;;5011483;28;20550;-69
2021/06/17 03:32:40;;;;;;;58.50;2.70;;;17.00;1.00;;;;;;5011160;28;20455;-69
2021/06/17 03:35:09;;;;;;;58.73;2.70;;;17.00;1.00;;;;;;5011335;28;20455;-70
2021/06/17 03:37:36;;;;;;;58.27;2.90;;;17.00;1.00;;;;;;5011627;28;20498;-69
2021/06/17 03:40:06;;;;;;;58.63;2.67;;;17.10;1.00;;;;;;5010775;28;20477;-69
2021/06/17 03:42:33;;;;;;;58.40;2.70;;;17.10;1.00;;;;;;5014705;28;20547;-69
2021/06/17 03:45:01;;;;;;;58.67;3.00;;;17.10;1.00;;;;;;5014849;28;20537;-70
2021/06/17 03:47:30;;;;;;;58.53;2.90;;;17.10;1.00;;;;;;5014624;28;20539;-69
2021/06/17 03:49:57;;;;;;;58.33;2.80;;;17.00;1.00;;;;;;5014477;28;20506;-68
2021/06/17 03:52:25;;;;;;;58.13;2.60;;;17.00;1.00;;;;;;5014582;28;20497;-69
2021/06/17 03:54:55;;;;;;;58.50;2.83;;;17.00;1.00;;;;;;5014709;28;20804;-69
2021/06/17 03:57:25;;;;;;;59.30;4.13;;;17.00;1.00;;;;;;5014455;28;20456;-69
2021/06/17 03:59:55;;;;;;;59.40;2.77;;;17.00;1.00;;;;;;5014206;28;20485;-69
2021/06/17 04:02:23;;;;;;;58.70;3.17;;;16.90;1.00;;;;;;5014636;28;20451;-68
2021/06/17 04:04:51;;;;;;;58.47;2.63;;;17.00;1.00;;;;;;5014174;28;20489;-68
2021/06/17 04:07:23;;;;;;;58.87;3.57;;;17.00;1.00;;;;;;5014219;28;20486;-68
2021/06/17 04:09:51;;;;;;;59.87;3.67;;;17.00;1.00;;;;;;5014264;28;20509;-69
2021/06/17 04:12:22;;;;;;;58.57;2.80;;;17.00;1.00;;;;;;5014376;28;20460;-69
2021/06/17 04:14:53;;;;;;;58.47;2.70;;;17.00;1.00;;;;;;5014495;28;20467;-69
2021/06/17 04:17:24;;;;;;;58.33;2.70;;;17.00;1.00;;;;;;5014223;28;20475;-69
2021/06/17 04:19:53;;;;;;;58.70;3.30;;;16.90;1.00;;;;;;5014529;28;20880;-69
2021/06/17 04:22:22;;;;;;;58.57;2.80;;;16.90;1.00;;;;;;5014551;28;20455;-69
2021/06/17 04:24:53;;;;;;;58.50;2.70;;;16.90;1.00;;;;;;5014173;28;20451;-69
2021/06/17 04:27:21;;;;;;;58.60;3.27;;;16.90;1.00;;;;;;5013575;28;20493;-69
2021/06/17 04:29:52;;;;;;;58.27;2.70;;;16.90;1.00;;;;;;5013923;28;20553;-69
2021/06/17 04:32:19;;;;;;;58.43;3.10;;;16.90;1.00;;;;;;5013715;28;20466;-69
2021/06/17 04:34:48;;;;;;;58.87;3.10;;;16.90;1.00;;;;;;5014023;28;20487;-69
2021/06/17 04:37:18;;;;;;;59.30;3.10;;;16.90;1.00;;;;;;5013555;28;20996;-69
2021/06/17 04:39:45;;;;;;;58.90;3.13;;;16.90;1.00;;;;;;5013710;28;20555;-68
2021/06/17 04:42:14;;;;;;;58.17;3.00;;;17.00;1.00;;;;;;5013373;28;20483;-69
2021/06/17 04:44:43;;;;;;;58.43;2.50;;;17.00;1.00;;;;;;5013482;28;20855;-68
2021/06/17 04:47:12;;;;;;;58.30;3.23;;;17.00;1.00;;;;;;5013298;28;20487;-69
2021/06/17 04:49:39;;;;;;;59.40;3.73;;;17.10;1.00;;;;;;5013530;28;21062;-69
2021/06/17 04:52:13;;;;;;;58.90;3.30;;;17.10;1.00;;;;;;5012842;28;20456;-68
2021/06/17 04:54:40;;;;;;;59.77;3.47;;;17.10;1.00;;;;;;5013277;28;20534;-69
2021/06/17 04:57:07;;;;;;;58.70;3.07;;;17.10;1.00;;;;;;5013033;28;20458;-69
2021/06/17 04:59:34;;;;;;;58.60;2.80;;;17.20;1.00;;;;;;5012962;28;20604;-69
2021/06/17 05:02:00;;;;;;;59.00;3.83;;;17.20;1.00;;;;;;5013259;28;20490;-68
2021/06/17 05:04:29;;;;;;;58.47;3.10;;;17.20;1.00;;;;;;5011737;28;20448;-69
2021/06/17 05:07:09;;;;;;;59.83;3.27;;;17.20;1.00;;;;;;5013021;28;20573;-68
2021/06/17 05:12:22;;;;;;;58.60;3.13;;;17.30;1.00;;;;;;5013221;28;20431;-69
2021/06/17 05:14:49;;;;;;;58.77;2.83;;;17.30;1.00;;;;;;5013035;28;20454;-68
2021/06/17 05:17:16;;;;;;;58.07;3.13;;;17.40;1.00;;;;;;5013391;28;20490;-69
2021/06/17 05:19:44;;;;;;;58.40;3.23;;;17.50;1.00;;;;;;5012862;28;20476;-69
2021/06/17 05:22:12;;;;;;;59.60;3.80;;;17.50;1.00;;;;;;5013087;28;20484;-69
2021/06/17 05:24:39;;;;;;;58.27;3.00;;;17.60;1.00;;;;;;5012704;28;21081;-69
2021/06/17 05:27:06;;;;;;;59.00;3.80;;;17.70;1.00;;;;;;5012576;28;21106;-69
2021/06/17 05:29:34;;;;;;;58.37;3.00;;;17.70;1.00;;;;;;5012480;28;20507;-68
2021/06/17 05:32:01;;;;;;;58.37;2.70;;;17.80;1.00;;;;;;5012779;28;20452;-69
2021/06/17 05:34:28;;;;;;;58.70;3.57;;;17.90;1.00;;;;;;5012445;28;20544;-68
2021/06/17 05:36:56;;;;;;;57.90;2.90;;;18.00;1.00;;;;;;5012466;28;20484;-69
2021/06/17 05:39:23;;;;;;;58.50;2.87;;;18.10;1.00;;;;;;5012472;28;20480;-69
2021/06/17 05:41:49;;;;;;;58.23;2.80;;;18.10;1.00;;;;;;5012694;28;20535;-69
2021/06/17 05:44:16;;;;;;;58.40;2.80;;;18.20;1.00;;;;;;5012638;28;20897;-69
2021/06/17 05:46:43;;;;;;;58.50;3.00;;;18.30;1.00;;;;;;5012092;28;20865;-68
2021/06/17 05:49:10;;;;;;;57.57;2.40;;;18.50;1.00;;;;;;5012335;28;20507;-69
2021/06/17 05:51:37;;;;;;;58.70;2.90;;;18.60;1.00;;;;;;5012315;28;20459;-69
2021/06/17 05:54:05;;;;;;;58.17;2.50;;;18.70;1.00;;;;;;5012507;28;20550;-69
2021/06/17 05:56:32;;;;;;;57.93;2.63;;;18.80;1.00;;;;;;5012218;28;20448;-68
2021/06/17 05:58:59;;;;;;;57.77;2.80;;;18.90;1.00;;;;;;5012201;28;20587;-69
2021/06/17 06:01:26;;;;;;;58.43;2.90;;;18.90;1.00;;;;;;5011956;28;20548;-69
2021/06/17 06:03:53;;;;;;;57.97;2.60;;;19.00;1.00;;;;;;5012116;28;20491;-70
2021/06/17 06:06:20;;;;;;;58.63;3.30;;;19.10;1.00;;;;;;5012278;28;20944;-67
2021/06/17 06:08:47;;;;;;;58.37;2.90;;;19.20;1.00;;;;;;5012136;28;20483;-66
2021/06/17 06:11:15;;;;;;;58.80;2.90;;;19.20;1.00;;;;;;5012282;28;20461;-69
2021/06/17 06:13:42;;;;;;;58.10;2.70;;;19.30;1.00;;;;;;5012182;28;20537;-67
2021/06/17 06:16:09;;;;;;;57.87;2.60;;;19.50;1.00;;;;;;5011666;28;20454;-67
2021/06/17 06:18:36;;;;;;;58.27;2.47;;;19.60;1.00;;;;;;5012176;28;20563;-68
2021/06/17 06:21:03;;;;;;;58.20;2.20;;;19.80;1.00;;;;;;5012232;28;20478;-67
2021/06/17 06:23:30;;;;;;;58.03;2.60;;;19.90;1.00;;;;;;5012133;28;20485;-67
2021/06/17 06:25:58;;;;;;;58.30;2.97;;;20.10;1.00;;;;;;5011883;28;20545;-68
2021/06/17 06:28:27;;;;;;;58.40;2.60;;;20.20;1.00;;;;;;5011949;28;20477;-68
2021/06/17 06:30:54;;;;;;;58.20;2.50;;;20.40;1.00;;;;;;5011948;28;20523;-68
2021/06/17 06:33:23;;;;;;;58.20;2.90;;;20.50;1.00;;;;;;5012195;28;20878;-68
2021/06/17 06:35:50;;;;;;;58.43;2.70;;;20.60;1.00;;;;;;5012220;28;20461;-68
2021/06/17 06:38:17;;;;;;;58.20;2.50;;;20.80;1.00;;;;;;5011734;28;20505;-67
2021/06/17 06:40:45;;;;;;;58.23;2.50;;;20.90;1.00;;;;;;5012181;28;20451;-68
2021/06/17 06:43:14;;;;;;;58.10;2.40;;;21.00;1.00;;;;;;5011802;28;20450;-68
2021/06/17 06:45:42;;;;;;;58.40;2.50;;;21.20;1.00;;;;;;5012086;28;20459;-68
2021/06/17 06:48:10;;;;;;;58.60;2.67;;;21.40;1.00;;;;;;5011803;28;20492;-68
2021/06/17 06:50:37;;;;;;;57.57;2.20;;;21.60;1.00;;;;;;5011967;28;20475;-68
2021/06/17 06:53:04;;;;;;;58.50;2.40;;;21.90;1.00;;;;;;5011443;28;20450;-68
2021/06/17 06:55:31;;;;;;;58.20;2.10;;;22.10;1.00;;;;;;5010459;28;20457;-68
2021/06/17 06:57:58;;;;;;;58.23;2.80;;;22.30;1.00;;;;;;5011391;28;20448;-68
2021/06/17 07:00:25;;;;;;;58.47;3.00;;;22.50;1.00;;;;;;5011839;28;20606;-68
2021/06/17 07:02:53;;;;;;;58.50;2.90;;;22.60;1.00;;;;;;5011902;28;20541;-68
2021/06/17 07:05:20;;;;;;;58.27;2.80;;;22.80;1.00;;;;;;5011832;28;20455;-68
2021/06/17 07:07:47;;;;;;;58.27;2.60;;;22.90;1.00;;;;;;5011225;28;21106;-67
2021/06/17 07:10:14;;;;;;;57.87;2.60;;;23.10;1.00;;;;;;5011439;28;20560;-68
2021/06/17 07:12:41;;;;;;;58.47;2.70;;;23.20;1.00;;;;;;5011421;28;20463;-68
2021/06/17 07:15:10;;;;;;;58.70;2.77;;;23.30;1.00;;;;;;5011709;28;20451;-68
2021/06/17 07:17:36;;;;;;;58.57;3.10;;;23.40;1.00;;;;;;5014802;28;20534;-68
2021/06/17 07:20:07;;;;;;;58.40;2.60;;;23.50;1.00;;;;;;5015283;28;20557;-69
2021/06/17 07:22:33;;;;;;;58.30;2.40;;;23.60;1.00;;;;;;5015389;28;20536;-69
2021/06/17 07:25:01;;;;;;;58.17;2.90;;;23.70;1.00;;;;;;5015055;28;20805;-68
2021/06/17 07:27:28;;;;;;;58.13;2.40;;;23.80;1.00;;;;;;5015033;28;20545;-69
2021/06/17 07:29:55;;;;;;;57.87;2.40;;;23.80;1.00;;;;;;5015272;28;20465;-69
2021/06/17 07:32:22;;;;;;;58.70;3.13;;;23.90;1.00;;;;;;5015061;28;20545;-68
2021/06/17 07:34:49;;;;;;;58.10;2.60;;;24.10;1.00;;;;;;5015096;28;20503;-69
2021/06/17 07:37:17;;;;;;;58.30;2.90;;;24.20;1.00;;;;;;5014605;28;20452;-68
2021/06/17 07:39:45;;;;;;;58.17;2.60;;;24.30;1.00;;;;;;5014710;28;20563;-69
2021/06/17 07:42:12;;;;;;;58.17;2.40;;;24.40;1.00;;;;;;5015089;28;20544;-68
2021/06/17 07:44:38;;;;;;;58.23;2.70;;;24.50;1.00;;;;;;5014941;28;20829;-69
2021/06/17 07:47:06;;;;;;;58.07;2.30;;;24.70;1.00;;;;;;5014710;28;21010;-69
2021/06/17 07:49:33;;;;;;;58.90;3.30;;;24.80;1.00;;;;;;5014660;28;20554;-69
2021/06/17 07:52:00;;;;;;;61.43;3.10;;;24.90;1.00;;;;;;5014513;28;20552;-69
2021/06/17 07:54:28;;;;;;;58.00;2.27;;;25.00;1.00;;;;;;5014582;28;20544;-69
2021/06/17 07:56:57;;;;;;;59.23;3.27;;;25.20;1.00;;;;;;5014396;28;20935;-69
2021/06/17 07:59:24;;;;;;;58.80;3.33;;;25.30;1.00;;;;;;5014432;28;20484;-69
2021/06/17 08:01:51;;;;;;;58.10;2.60;;;25.40;1.00;;;;;;5014466;28;20457;-69
2021/06/17 08:04:18;;;;;;;58.40;2.50;;;25.50;1.00;;;;;;5014489;28;20447;-68
2021/06/17 08:06:45;;;;;;;58.07;2.30;;;25.60;1.00;;;;;;5013981;28;20504;-68
2021/06/17 08:09:17;;;;;;;58.37;2.43;;;25.80;1.00;;;;;;4993567;28;20571;-69
2021/06/17 08:11:46;;;;;;;58.23;2.37;;;25.90;1.00;;;;;;4994787;28;20522;-69
2021/06/17 08:14:16;;;;;;;58.10;2.50;;;26.10;1.00;;;;;;4995012;28;20544;-69
2021/06/17 08:16:43;;;;;;;58.33;2.90;;;26.20;1.00;;;;;;4994267;28;20457;-69
2021/06/17 08:19:10;;;;;;;57.97;2.40;;;26.30;1.00;;;;;;4994438;28;21070;-69
2021/06/17 08:21:37;;;;;;;58.47;2.50;;;26.40;1.00;;;;;;4994494;28;20455;-67
2021/06/17 08:24:04;;;;;;;58.30;2.90;;;26.50;1.00;;;;;;4994517;28;20840;-70
2021/06/17 08:26:32;;;;;;;58.43;2.30;;;26.60;1.00;;;;;;4994008;28;20492;-70
2021/06/17 08:29:01;;;;;;;57.97;2.73;;;26.70;1.00;;;;;;4993422;28;20855;-69
2021/06/17 08:31:28;;;;;;;58.10;2.60;;;26.90;1.00;;;;;;4994080;28;20464;-69
2021/06/17 08:33:55;;;;;;;57.93;2.50;;;27.10;1.00;;;;;;4994482;28;20962;-69
2021/06/17 08:36:23;;;;;;;57.97;2.70;;;27.20;1.00;;;;;;4994717;28;20542;-68
2021/06/17 08:38:50;;;;;;;57.87;2.50;;;27.30;1.00;;;;;;4994662;28;20467;-69
2021/06/17 08:41:17;;;;;;;57.87;2.30;;;27.40;1.00;;;;;;4994006;28;20458;-69
2021/06/17 08:43:44;;;;;;;57.97;2.40;;;27.50;1.00;;;;;;4994055;28;20551;-69
2021/06/17 08:46:12;;;;;;;58.17;2.60;;;27.60;1.00;;;;;;4993978;28;20538;-68
2021/06/17 08:48:40;;;;;;;57.93;2.40;;;27.80;1.00;;;;;;4993782;28;20569;-68
2021/06/17 08:51:07;;;;;;;58.00;2.73;;;27.90;1.00;;;;;;4993852;28;20458;-69
2021/06/17 08:53:34;;;;;;;58.60;2.83;;;28.00;1.00;;;;;;5002745;28;20463;-69
2021/06/17 08:56:01;;;;;;;57.63;2.20;;;28.10;1.00;;;;;;5013218;28;20949;-68
2021/06/17 08:58:29;;;;;;;58.00;2.67;;;28.20;1.00;;;;;;5013044;28;20484;-68
2021/06/17 09:00:56;;;;;;;58.17;2.80;;;28.40;1.00;;;;;;5013078;28;20465;-68
2021/06/17 09:03:24;;;;;;;57.90;2.27;;;28.50;1.00;;;;;;5013471;28;20533;-69
2021/06/17 09:05:54;;;;;;;58.17;2.97;;;28.60;1.00;;;;;;5013025;28;21029;-68
2021/06/17 09:08:27;;;;;;;57.87;2.33;;;28.80;1.00;;;;;;5012753;28;21013;-68
2021/06/17 09:10:54;;;;;;;57.87;2.63;;;29.00;1.00;;;;;;5013116;28;20450;-68
2021/06/17 09:13:22;;;;;;;58.90;2.70;;;29.00;1.00;;;;;;5013029;28;20489;-67
2021/06/17 09:15:53;;;;;;;57.80;2.43;;;29.10;1.00;;;;;;5012977;28;21033;-68
2021/06/17 09:18:26;;;;;;;58.50;2.50;;;29.30;1.00;;;;;;5012855;28;20982;-67
2021/06/17 09:20:59;;;;;;;57.87;2.37;;;29.50;1.00;;;;;;5013082;28;20447;-68
2021/06/17 09:23:29;;;;;;;58.17;2.80;;;29.60;1.00;;;;;;5012969;28;20450;-68
2021/06/17 09:25:58;;;;;;;57.60;2.20;;;29.70;1.00;;;;;;5012691;28;20973;-67
2021/06/17 09:28:26;;;;;;;57.90;2.60;;;29.80;1.00;;;;;;5012705;28;20517;-68
2021/06/17 09:30:53;;;;;;;58.03;2.70;;;29.90;1.00;;;;;;5012925;28;20456;-68
2021/06/17 09:33:24;;;;;;;58.00;2.80;;;30.10;1.00;;;;;;5012794;28;20447;-68
2021/06/17 09:35:55;;;;;;;58.20;2.83;;;30.30;1.00;;;;;;5012721;28;20821;-69
2021/06/17 09:38:23;;;;;;;57.77;2.00;;;30.50;1.00;;;;;;5011918;28;20971;-69
2021/06/17 09:40:53;;;;;;;57.63;2.40;;;30.80;1.00;;;;;;5012802;28;20856;-68
2021/06/17 09:43:29;;;;;;;57.37;2.20;;;31.50;1.00;;;;;;5012733;28;20546;-68
2021/06/17 09:46:01;;;;;;;57.80;2.30;;;31.90;1.00;;;;;;5012602;28;20532;-68
2021/06/17 09:48:43;;;;;;;58.30;2.77;;;32.00;1.00;;;;;;5012241;28;20550;-69
2021/06/17 09:51:30;;;;;;;57.80;2.40;;;32.00;1.00;;;;;;5012591;28;20449;-69
2021/06/17 09:54:13;;;;;;;57.97;2.50;;;31.90;1.00;;;;;;5012385;28;20961;-69
2021/06/17 09:56:40;;;;;;;57.90;2.60;;;31.90;1.00;;;;;;5012139;28;20452;-68
2021/06/17 09:59:09;;;;;;;57.77;2.40;;;31.90;1.00;;;;;;5011942;28;20569;-68
2021/06/17 10:01:41;;;;;;;57.77;2.60;;;31.90;1.00;;;;;;5012476;28;20568;-68
2021/06/17 10:04:09;;;;;;;57.63;2.20;;;32.10;1.00;;;;;;5012278;28;20468;-68
2021/06/17 10:06:39;;;;;;;57.47;2.07;;;32.20;1.00;;;;;;5012078;28;20452;-68
2021/06/17 10:09:09;;;;;;;57.67;2.60;;;32.30;1.00;;;;;;5012147;28;20493;-68
2021/06/17 10:11:37;;;;;;;57.90;2.77;;;32.50;1.00;;;;;;5011946;28;20879;-68
2021/06/17 10:14:05;;;;;;;57.90;3.50;;;32.70;1.00;;;;;;5012092;28;21028;-68
2021/06/17 10:16:34;;;;;;;57.60;2.60;;;32.90;1.00;;;;;;5011996;28;20513;-68
2021/06/17 10:19:01;;;;;;;57.40;2.67;;;33.20;1.00;;;;;;5011847;28;20997;-68
2021/06/17 10:21:28;;;;;;;57.37;2.30;;;33.60;1.00;;;;;;5011984;28;20457;-68
2021/06/17 10:23:56;;;;;;;57.40;2.43;;;33.90;1.00;;;;;;5011972;28;20446;-69
2021/06/17 10:26:26;;;;;;;57.83;2.90;;;34.70;1.00;;;;;;5011629;28;20454;-68
2021/06/17 10:28:54;;;;;;;57.80;2.67;;;35.90;1.00;;;;;;5011903;28;20492;-68
2021/06/17 10:31:49;;;;;;;57.03;2.30;;;37.30;1.00;;;;;;5011819;28;20943;-68
2021/06/17 10:34:40;;;;;;;57.10;2.63;;;38.70;1.00;;;;;;5011883;28;20935;-69
2021/06/17 10:37:18;;;;;;;57.47;2.60;;;39.80;1.00;;;;;;5011891;28;20450;-68
2021/06/17 10:39:49;;;;;;;56.57;2.20;;;40.60;1.00;;;;;;5011795;28;20506;-68
2021/06/17 10:42:35;;;;;;;56.30;2.50;;;41.30;1.00;;;;;;5011652;28;21045;-68
2021/06/17 10:45:04;;;;;;;56.67;2.20;;;42.10;1.00;;;;;;5011677;28;20532;-68
2021/06/17 10:48:04;;;;;;;56.87;2.53;;;42.40;1.00;;;;;;5011887;28;20510;-68
2021/06/17 10:50:42;;;;;;;56.40;2.27;;;43.00;1.00;;;;;;5012054;28;20453;-68
2021/06/17 10:53:17;;;;;;;56.77;2.30;;;43.50;1.00;;;;;;5015590;28;20453;-68
2021/06/17 10:56:01;;;;;;;56.83;2.20;;;43.80;1.00;;;;;;5015623;28;20545;-68
2021/06/17 10:59:06;;;;;;;56.70;2.30;;;44.00;1.00;;;;;;5015610;28;20469;-68
2021/06/17 11:01:41;;;;;;;56.80;2.37;;;44.30;1.00;;;;;;5015470;28;20522;-69
2021/06/17 11:04:30;;;;;;;56.80;2.97;;;44.60;1.00;;;;;;5016280;28;20829;-69
2021/06/17 11:07:19;;;;;;;56.80;2.87;;;44.70;1.00;;;;;;5014752;28;20553;-69
2021/06/17 11:09:49;;;;;;;56.20;2.50;;;44.80;1.00;;;;;;5015738;28;20468;-70
2021/06/17 11:12:57;;;;;;;56.60;2.43;;;45.00;1.00;;;;;;5015652;28;20930;-70
2021/06/17 11:15:41;;;;;;;56.37;2.20;;;45.00;1.00;;;;;;4993808;28;20878;-69
2021/06/17 11:18:08;;;;;;;56.80;2.30;;;45.10;1.00;;;;;;4993093;28;20457;-69
2021/06/17 11:20:37;;;;;;;57.10;2.40;;;44.90;1.00;;;;;;5006293;28;20460;-69
2021/06/17 11:23:04;;;;;;;56.73;2.70;;;45.20;1.00;;;;;;5015560;28;20453;-69
2021/06/17 11:25:33;;;;;;;57.27;2.77;;;45.60;1.00;;;;;;5015471;28;20452;-69
2021/06/17 11:28:02;;;;;;;56.47;2.37;;;46.10;1.00;;;;;;5014942;28;20492;-69
2021/06/17 11:30:55;;;;;;;56.60;2.40;;;46.30;1.00;;;;;;5015089;28;20934;-68
2021/06/17 11:33:45;;;;;;;55.70;2.50;;;46.90;1.00;;;;;;5015207;28;20454;-69
2021/06/17 11:36:20;;;;;;;56.57;2.77;;;47.00;1.00;;;;;;5014856;28;20888;-68
2021/06/17 11:38:52;;;;;;;56.90;2.67;;;46.90;1.00;;;;;;5015012;28;20725;-69
2021/06/17 11:41:22;;;;;;;57.37;2.97;;;47.00;1.00;;;;;;5014644;28;20511;-69
2021/06/17 11:43:56;;;;;;;55.73;2.20;;;47.00;1.00;;;;;;5015130;28;20549;-69
2021/06/17 11:46:25;;;;;;;56.47;2.50;;;47.10;1.00;;;;;;5014689;28;20484;-69
2021/06/17 11:49:01;;;;;;;56.50;2.23;;;47.30;1.00;;;;;;5014736;28;20592;-68
2021/06/17 11:51:41;;;;;;;56.80;2.83;;;47.50;1.00;;;;;;5014519;28;20481;-68
2021/06/17 11:54:08;;;;;;;56.40;2.60;;;47.60;1.00;;;;;;5014526;28;20545;-68
2021/06/17 11:56:35;;;;;;;56.57;2.73;;;47.70;1.00;;;;;;5014438;28;20431;-68
2021/06/17 11:59:21;;;;;;;56.67;2.77;;;47.80;1.00;;;;;;5014490;28;20794;-69
2021/06/17 12:02:07;;;;;;;56.80;2.53;;;47.90;1.00;;;;;;5014027;28;20533;-67
2021/06/17 12:04:42;;;;;;;56.90;2.70;;;48.10;1.00;;;;;;5014638;28;20482;-67
2021/06/17 12:07:09;;;;;;;56.40;2.50;;;48.30;1.00;;;;;;5014287;28;20533;-67
2021/06/17 12:09:36;;;;;;;56.33;2.97;;;48.50;1.00;;;;;;5012938;28;20500;-67
2021/06/17 12:12:14;;;;;;;56.80;2.97;;;48.60;1.00;;;;;;5014087;28;20486;-68
2021/06/17 12:14:42;;;;;;;56.50;2.53;;;48.60;1.00;;;;;;5012123;28;20537;-68
2021/06/17 12:17:10;;;;;;;57.23;2.20;;;48.70;1.00;;;;;;5014154;28;20536;-68
2021/06/17 12:19:36;;;;;;;56.47;2.57;;;48.80;1.00;;;;;;5014235;28;20462;-68
2021/06/17 12:22:08;;;;;;;56.57;2.40;;;48.90;1.00;;;;;;5014001;28;20537;-69
2021/06/17 12:24:36;;;;;;;56.60;2.67;;;48.80;1.00;;;;;;5014168;28;20454;-68
2021/06/17 12:27:04;;;;;;;56.07;2.40;;;48.70;1.00;;;;;;5013659;28;20859;-68
2021/06/17 12:29:31;;;;;;;55.87;2.30;;;48.70;1.00;;;;;;5013765;28;20496;-68
2021/06/17 12:32:01;;;;;;;56.50;2.50;;;48.50;1.00;;;;;;5014224;28;20446;-68
2021/06/17 12:34:39;;;;;;;56.27;2.57;;;48.00;1.00;;;;;;5014072;28;20454;-68
2021/06/17 12:37:09;;;;;;;56.57;2.30;;;47.50;1.00;;;;;;5013851;28;20446;-68
2021/06/17 12:39:36;;;;;;;56.50;2.77;;;47.40;1.00;;;;;;5014134;28;20473;-68
2021/06/17 12:42:09;;;;;;;56.17;2.10;;;47.40;1.00;;;;;;5013903;28;20477;-68
2021/06/17 12:44:38;;;;;;;56.47;2.50;;;47.40;1.00;;;;;;5013801;28;20448;-68
2021/06/17 12:47:11;;;;;;;56.50;2.47;;;47.30;1.00;;;;;;5013565;28;20821;-68
2021/06/17 12:52:31;;;;;;;56.40;2.20;;;48.10;1.00;;;;;;5013610;28;20429;-68
2021/06/17 12:54:58;;;;;;;56.07;2.20;;;48.40;1.00;;;;;;5013468;28;20541;-69
2021/06/17 12:57:26;;;;;;;56.27;2.43;;;48.60;1.00;;;;;;5013380;28;20835;-68
2021/06/17 12:59:56;;;;;;;55.87;2.20;;;48.50;1.00;;;;;;5013333;28;20478;-68
2021/06/17 13:02:45;;;;;;;56.27;2.13;;;48.50;1.00;;;;;;5013149;28;20892;-69
2021/06/17 13:05:14;;;;;;;56.37;2.40;;;48.00;1.00;;;;;;5013288;28;20989;-68
2021/06/17 13:07:58;;;;;;;55.50;2.47;;;47.30;1.00;;;;;;5013217;28;20749;-68